createdAt,value
2023-05-14T00:00:42.875Z,97.08
2023-05-14T00:02:45.986Z,97.05
2023-05-14T00:04:49.185Z,96.86
2023-05-14T00:06:51.256Z,96.88
2023-05-14T00:08:54.293Z,96.47
2023-05-14T00:10:57.301Z,96.28
2023-05-14T00:13:00.407Z,96.16
2023-05-14T00:15:05.584Z,96.55
2023-05-14T00:17:08.555Z,96.37
2023-05-14T00:19:11.631Z,96.59
2023-05-14T00:21:14.696Z,96.04
2023-05-14T00:23:17.702Z,96.20
2023-05-14T00:25:20.802Z,96.27
2023-05-14T00:27:23.817Z,96.31
2023-05-14T00:29:26.891Z,96.25
2023-05-14T00:31:31.334Z,96.38
2023-05-14T00:33:35.131Z,96.85
2023-05-14T00:35:38.428Z,95.84
2023-05-14T00:37:42.310Z,96.30
2023-05-14T00:39:45.539Z,96.19
2023-05-14T00:41:48.592Z,96.10
2023-05-14T00:43:51.577Z,96.05
2023-05-14T00:45:55.673Z,95.75
2023-05-14T00:48:00.113Z,95.62
2023-05-14T00:50:04.068Z,95.55
2023-05-14T00:52:07.435Z,95.86
2023-05-14T00:54:10.617Z,95.88
2023-05-14T00:56:14.093Z,95.47
2023-05-14T00:58:17.157Z,95.93
2023-05-14T01:00:21.214Z,95.88
2023-05-14T01:02:24.766Z,94.99
2023-05-14T01:04:29.608Z,95.31
2023-05-14T01:06:39.740Z,94.82
2023-05-14T01:08:59.616Z,94.68
2023-05-14T01:11:07.905Z,94.73
2023-05-14T01:13:15.349Z,96.35
2023-05-14T01:15:24.238Z,95.18
2023-05-14T01:17:30.372Z,96.14
2023-05-14T01:19:39.148Z,94.51
2023-05-14T01:21:45.652Z,94.25
2023-05-14T01:23:49.393Z,94.35
2023-05-14T01:25:53.118Z,93.48
2023-05-14T01:28:02.401Z,93.12
2023-05-14T01:30:12.755Z,94.07
2023-05-14T01:32:17.415Z,94.40
2023-05-14T01:34:22.696Z,94.48
2023-05-14T01:36:26.575Z,94.85
2023-05-14T01:38:34.069Z,94.96
2023-05-14T01:40:38.416Z,93.46
2023-05-14T01:42:42.421Z,93.87
2023-05-14T01:44:46.165Z,94.65
2023-05-14T01:46:49.901Z,94.93
2023-05-14T01:48:53.342Z,93.99
2023-05-14T01:50:57.142Z,93.85
2023-05-14T01:53:00.768Z,94.02
2023-05-14T01:55:07.164Z,94.11
2023-05-14T01:57:10.737Z,93.03
2023-05-14T01:59:14.280Z,92.72
2023-05-14T02:01:17.939Z,93.48
2023-05-14T02:03:21.684Z,94.63
2023-05-14T02:05:25.464Z,95.67
2023-05-14T02:07:30.996Z,94.02
2023-05-14T02:09:34.850Z,94.89
2023-05-14T02:11:40.040Z,95.66
2023-05-14T02:13:43.559Z,95.86
2023-05-14T02:15:47.292Z,95.77
2023-05-14T02:17:50.995Z,94.99
2023-05-14T02:19:54.546Z,95.67
2023-05-14T02:21:58.095Z,96.39
2023-05-14T02:24:01.485Z,95.33
2023-05-14T02:26:05.433Z,95.21
2023-05-14T02:28:10.448Z,95.23
2023-05-14T02:30:15.228Z,96.17
2023-05-14T02:32:19.024Z,96.08
2023-05-14T02:34:22.487Z,94.11
2023-05-14T02:36:27.455Z,94.63
2023-05-14T02:38:31.187Z,96.79
2023-05-14T02:40:34.766Z,96.67
2023-05-14T02:42:38.469Z,97.01
2023-05-14T02:44:43.479Z,97.51
2023-05-14T02:46:47.900Z,95.82
2023-05-14T02:48:51.537Z,97.10
2023-05-14T02:50:55.742Z,95.96
2023-05-14T02:52:59.283Z,96.92
2023-05-14T02:55:03.335Z,97.25
2023-05-14T02:57:06.978Z,98.02
2023-05-14T02:59:09.974Z,97.45
2023-05-14T03:01:15.118Z,96.25
2023-05-14T03:03:20.159Z,96.00
2023-05-14T03:05:23.847Z,96.18
2023-05-14T03:07:26.848Z,97.68
2023-05-14T03:09:29.847Z,97.26
2023-05-14T03:11:32.885Z,95.99
2023-05-14T03:13:35.921Z,96.70
2023-05-14T03:15:38.949Z,97.03
2023-05-14T03:17:43.591Z,96.06
2023-05-14T03:19:46.629Z,97.11
2023-05-14T03:21:50.112Z,95.98
2023-05-14T03:23:53.654Z,97.35
2023-05-14T03:25:56.681Z,96.17
2023-05-14T03:28:00.905Z,95.81
2023-05-14T03:30:04.491Z,95.90
2023-05-14T03:32:08.081Z,95.95
2023-05-14T03:34:12.557Z,96.43
2023-05-14T03:36:15.654Z,96.28
2023-05-14T03:38:18.668Z,97.13
2023-05-14T03:40:23.269Z,97.06
2023-05-14T03:42:27.098Z,97.55
2023-05-14T03:44:30.264Z,97.93
2023-05-14T03:46:33.435Z,96.54
2023-05-14T03:48:36.557Z,95.81
2023-05-14T03:50:42.616Z,96.97
2023-05-14T03:52:46.007Z,96.80
2023-05-14T03:54:49.043Z,97.38
2023-05-14T03:56:52.065Z,97.30
2023-05-14T03:58:55.042Z,95.82
2023-05-14T04:00:58.265Z,95.44
2023-05-14T04:03:02.151Z,95.84
2023-05-14T04:05:05.630Z,97.61
2023-05-14T04:07:10.206Z,98.01
2023-05-14T04:09:13.236Z,96.72
2023-05-14T04:11:16.373Z,97.51
2023-05-14T04:13:19.523Z,97.09
2023-05-14T04:15:22.709Z,97.48
2023-05-14T04:17:25.949Z,97.09
2023-05-14T04:19:29.116Z,96.26
2023-05-14T04:21:33.404Z,96.46
2023-05-14T04:23:37.760Z,97.00
2023-05-14T04:25:40.939Z,96.33
2023-05-14T04:27:44.008Z,95.76
2023-05-14T04:29:47.058Z,96.19
2023-05-14T04:31:50.674Z,96.62
2023-05-14T04:33:53.865Z,97.63
2023-05-14T04:35:56.962Z,96.66
2023-05-14T04:38:01.277Z,97.86
2023-05-14T04:40:06.689Z,97.08
2023-05-14T04:42:09.743Z,97.91
2023-05-14T04:44:13.801Z,97.39
2023-05-14T04:46:16.922Z,98.04
2023-05-14T04:48:20.033Z,98.03
2023-05-14T04:50:23.459Z,98.55
2023-05-14T04:52:26.861Z,98.37
2023-05-14T04:54:30.090Z,97.59
2023-05-14T04:56:34.520Z,97.12
2023-05-14T04:58:37.539Z,98.03
2023-05-14T05:00:41.129Z,97.65
2023-05-14T05:02:44.413Z,97.83
2023-05-14T05:04:47.518Z,97.76
2023-05-14T05:06:50.726Z,96.49
2023-05-14T05:08:53.771Z,97.03
2023-05-14T05:10:56.747Z,96.50
2023-05-14T05:13:01.394Z,96.63
2023-05-14T05:15:04.589Z,95.41
2023-05-14T05:17:09.424Z,96.61
2023-05-14T05:19:12.673Z,95.97
2023-05-14T05:21:15.826Z,95.89
2023-05-14T05:23:18.940Z,96.90
2023-05-14T05:25:22.130Z,97.26
2023-05-14T05:27:25.121Z,96.43
2023-05-14T05:29:29.733Z,96.51
2023-05-14T05:31:33.064Z,96.46
2023-05-14T05:33:36.453Z,96.85
2023-05-14T05:35:39.567Z,96.65
2023-05-14T05:37:45.182Z,96.74
2023-05-14T05:39:48.410Z,96.47
2023-05-14T05:41:55.129Z,96.41
2023-05-14T05:43:58.098Z,96.42
2023-05-14T05:46:02.994Z,96.38
2023-05-14T05:48:06.628Z,96.49
2023-05-14T05:50:10.843Z,96.26
2023-05-14T05:52:13.954Z,96.11
2023-05-14T05:54:19.801Z,95.85
2023-05-14T05:56:22.890Z,95.83
2023-05-14T05:58:26.277Z,95.56
2023-05-14T06:00:29.282Z,95.45
2023-05-14T06:02:33.961Z,94.98
2023-05-14T06:04:36.982Z,95.07
2023-05-14T06:06:40.166Z,95.41
2023-05-14T06:08:43.200Z,95.64
2023-05-14T06:10:47.532Z,95.45
2023-05-14T06:12:50.953Z,95.44
2023-05-14T06:14:55.427Z,95.09
2023-05-14T06:16:58.737Z,95.38
2023-05-14T06:19:03.365Z,95.01
2023-05-14T06:21:06.733Z,94.81
2023-05-14T06:23:11.267Z,95.50
2023-05-14T06:25:14.307Z,93.52
2023-05-14T06:27:17.539Z,93.33
2023-05-14T06:29:20.582Z,93.90
2023-05-14T06:31:23.624Z,94.82
2023-05-14T06:33:30.871Z,94.50
2023-05-14T06:35:35.603Z,93.09
2023-05-14T06:37:38.696Z,92.72
2023-05-14T06:39:46.719Z,92.26
2023-05-14T06:41:50.349Z,91.26
2023-05-14T06:43:53.371Z,92.50
2023-05-14T06:45:56.416Z,90.58
2023-05-14T06:47:59.539Z,91.38
2023-05-14T06:50:02.866Z,91.48
2023-05-14T06:52:08.122Z,89.90
2023-05-14T06:54:11.174Z,90.66
2023-05-14T06:56:14.737Z,90.26
2023-05-14T06:58:17.824Z,88.28
2023-05-14T07:00:22.203Z,87.80
2023-05-14T07:02:25.642Z,87.53
2023-05-14T07:04:28.792Z,86.95
2023-05-14T07:06:32.499Z,86.31
2023-05-14T07:08:37.174Z,86.04
2023-05-14T07:10:40.749Z,86.28
2023-05-14T07:12:44.195Z,86.63
2023-05-14T07:14:47.223Z,84.78
2023-05-14T07:16:50.358Z,86.04
2023-05-14T07:18:53.640Z,87.78
2023-05-14T07:20:56.803Z,86.39
2023-05-14T07:23:00.005Z,85.68
2023-05-14T07:25:04.543Z,86.72
2023-05-14T07:27:08.633Z,86.40
2023-05-14T07:29:11.780Z,83.63
2023-05-14T07:31:14.978Z,83.41
2023-05-14T07:33:18.109Z,81.88
2023-05-14T07:35:21.212Z,83.31
2023-05-14T07:37:26.000Z,82.08
2023-05-14T07:39:29.096Z,81.30
2023-05-14T07:41:33.658Z,81.24
2023-05-14T07:43:38.475Z,83.34
2023-05-14T07:45:41.820Z,82.63
2023-05-14T07:47:44.988Z,81.59
2023-05-14T07:49:48.182Z,80.93
2023-05-14T07:51:51.299Z,81.22
2023-05-14T07:53:55.426Z,78.98
2023-05-14T07:55:59.982Z,81.65
2023-05-14T07:58:04.525Z,81.64
2023-05-14T08:00:09.189Z,80.81
2023-05-14T08:02:18.445Z,80.88
2023-05-14T08:04:23.474Z,80.33
2023-05-14T08:06:27.575Z,81.10
2023-05-14T08:08:30.913Z,79.95
2023-05-14T08:10:34.234Z,76.04
2023-05-14T08:12:37.474Z,77.55
2023-05-14T08:14:42.092Z,76.60
2023-05-14T08:16:45.227Z,76.07
2023-05-14T08:18:48.499Z,74.27
2023-05-14T08:20:51.734Z,74.68
2023-05-14T08:22:54.713Z,73.52
2023-05-14T08:24:57.900Z,73.36
2023-05-14T08:27:01.047Z,70.51
2023-05-14T08:29:04.214Z,72.07
2023-05-14T08:31:08.688Z,72.23
2023-05-14T08:33:12.026Z,72.62
2023-05-14T08:35:15.182Z,73.10
2023-05-14T08:37:18.259Z,73.54
2023-05-14T08:39:21.335Z,71.35
2023-05-14T08:41:24.645Z,72.64
2023-05-14T08:43:29.504Z,73.46
2023-05-14T08:45:34.165Z,73.13
2023-05-14T08:47:38.916Z,76.56
2023-05-14T08:49:44.499Z,76.75
2023-05-14T08:51:48.586Z,77.33
2023-05-14T08:53:51.747Z,76.35
2023-05-14T08:55:55.027Z,75.14
2023-05-14T08:57:58.133Z,74.21
2023-05-14T09:00:01.769Z,77.09
2023-05-14T09:02:06.968Z,77.03
2023-05-14T09:04:12.810Z,78.42
2023-05-14T09:06:16.892Z,80.72
2023-05-14T09:08:20.820Z,79.37
2023-05-14T09:10:24.333Z,76.78
2023-05-14T09:12:27.979Z,76.28
2023-05-14T09:14:31.140Z,77.38
2023-05-14T09:16:34.397Z,76.44
2023-05-14T09:18:37.930Z,78.80
2023-05-14T09:20:42.537Z,80.61
2023-05-14T09:22:45.747Z,78.46
2023-05-14T09:25:03.906Z,77.57
2023-05-14T09:27:07.522Z,76.56
2023-05-14T09:29:11.033Z,75.12
2023-05-14T09:31:14.290Z,74.06
2023-05-14T09:33:27.259Z,71.46
2023-05-14T09:35:30.440Z,71.92
2023-05-14T09:37:37.444Z,71.63
2023-05-14T09:39:41.284Z,72.73
2023-05-14T09:41:44.356Z,71.86
2023-05-14T09:43:47.475Z,71.76
2023-05-14T09:45:50.587Z,73.45
2023-05-14T09:47:53.818Z,73.64
2023-05-14T09:49:56.918Z,73.53
2023-05-14T09:51:59.999Z,74.28
2023-05-14T09:54:05.729Z,74.02
2023-05-14T09:56:09.029Z,73.74
2023-05-14T09:58:14.406Z,74.31
2023-05-14T10:00:18.132Z,73.31
2023-05-14T10:02:24.179Z,74.26
2023-05-14T10:04:27.454Z,74.42
2023-05-14T10:06:34.824Z,74.99
2023-05-14T10:08:42.931Z,74.14
2023-05-14T10:10:47.584Z,74.20
2023-05-14T10:12:54.235Z,74.86
2023-05-14T10:14:59.265Z,73.58
2023-05-14T10:17:03.086Z,74.40
2023-05-14T10:19:09.163Z,74.84
2023-05-14T10:21:12.769Z,75.51
2023-05-14T10:23:16.088Z,74.75
2023-05-14T10:25:19.474Z,74.82
2023-05-14T10:27:24.622Z,75.19
2023-05-14T10:29:33.678Z,74.55
2023-05-14T10:31:51.696Z,75.80
2023-05-14T10:33:55.215Z,73.76
2023-05-14T10:36:01.094Z,74.79
2023-05-14T10:38:09.281Z,73.60
2023-05-14T10:40:13.670Z,72.90
2023-05-14T10:42:19.157Z,73.38
2023-05-14T10:44:23.734Z,73.95
2023-05-14T10:46:26.983Z,72.37
2023-05-14T10:48:30.127Z,73.40
2023-05-14T10:50:33.241Z,72.94
2023-05-14T10:52:36.635Z,73.40
2023-05-14T10:54:39.868Z,73.79
2023-05-14T10:56:45.116Z,73.15
2023-05-14T10:58:51.444Z,73.68
2023-05-14T11:00:57.142Z,74.65
2023-05-14T11:03:01.654Z,74.19
2023-05-14T11:05:08.198Z,73.04
2023-05-14T11:07:11.503Z,72.39
2023-05-14T11:09:18.384Z,72.16
2023-05-14T11:11:21.994Z,73.84
2023-05-14T11:13:27.393Z,72.54
2023-05-14T11:15:30.493Z,72.44
2023-05-14T11:17:36.849Z,73.01
2023-05-14T11:19:39.959Z,71.04
2023-05-14T11:21:43.160Z,71.17
2023-05-14T11:23:47.944Z,70.47
2023-05-14T11:25:51.157Z,70.70
2023-05-14T11:27:58.229Z,69.99
2023-05-14T11:30:02.105Z,71.90
2023-05-14T11:32:06.874Z,73.74
2023-05-14T11:34:11.415Z,72.49
2023-05-14T11:36:14.748Z,72.21
2023-05-14T11:38:18.496Z,70.83
2023-05-14T11:40:22.166Z,73.37
2023-05-14T11:42:25.825Z,72.42
2023-05-14T11:44:29.041Z,72.86
2023-05-14T11:46:32.161Z,71.57
2023-05-14T11:48:35.223Z,72.45
2023-05-14T11:50:40.485Z,72.94
2023-05-14T11:52:43.691Z,70.57
2023-05-14T11:54:47.015Z,69.82
2023-05-14T11:56:51.548Z,71.13
2023-05-14T11:58:57.495Z,70.98
2023-05-14T12:01:00.724Z,71.25
2023-05-14T12:03:03.820Z,68.84
2023-05-14T12:05:09.072Z,69.49
2023-05-14T12:07:14.846Z,71.73
2023-05-14T12:09:18.992Z,68.20
2023-05-14T12:11:22.381Z,69.43
2023-05-14T12:13:27.215Z,70.25
2023-05-14T12:15:30.426Z,69.13
2023-05-14T12:17:33.943Z,66.94
2023-05-14T12:19:41.880Z,67.98
2023-05-14T12:21:45.816Z,69.41
2023-05-14T12:23:58.542Z,69.27
2023-05-14T12:26:09.137Z,69.29
2023-05-14T12:28:15.731Z,67.38
2023-05-14T12:30:21.847Z,68.82
2023-05-14T12:32:41.294Z,67.97
2023-05-14T12:34:44.562Z,68.11
2023-05-14T12:36:47.586Z,68.32
2023-05-14T12:38:52.217Z,69.84
2023-05-14T12:40:55.210Z,69.77
2023-05-14T12:42:58.297Z,67.49
2023-05-14T12:45:05.511Z,68.76
2023-05-14T12:47:09.533Z,69.38
2023-05-14T12:49:12.679Z,67.71
2023-05-14T12:51:15.745Z,69.46
2023-05-14T12:53:18.751Z,68.45
2023-05-14T12:55:23.283Z,69.34
2023-05-14T12:57:27.777Z,67.08
2023-05-14T12:59:31.028Z,67.96
2023-05-14T13:01:34.140Z,68.44
2023-05-14T13:03:37.379Z,67.17
2023-05-14T13:05:40.655Z,68.79
2023-05-14T13:07:44.001Z,68.94
2023-05-14T13:09:47.164Z,67.03
2023-05-14T13:11:51.579Z,67.50
2023-05-14T13:13:56.376Z,65.64
2023-05-14T13:15:59.418Z,66.42
2023-05-14T13:18:02.532Z,67.20
2023-05-14T13:20:06.436Z,68.05
2023-05-14T13:22:09.589Z,68.65
2023-05-14T13:24:13.108Z,67.17
2023-05-14T13:26:16.662Z,69.21
2023-05-14T13:28:21.303Z,69.68
2023-05-14T13:30:24.440Z,67.79
2023-05-14T13:32:27.585Z,67.17
2023-05-14T13:34:30.719Z,66.78
2023-05-14T13:36:33.887Z,68.67
2023-05-14T13:38:37.049Z,68.35
2023-05-14T13:40:42.590Z,69.53
2023-05-14T13:42:45.726Z,68.61
2023-05-14T13:44:50.306Z,69.71
2023-05-14T13:46:53.680Z,69.57
2023-05-14T13:48:56.949Z,68.61
2023-05-14T13:51:00.422Z,69.81
2023-05-14T13:53:03.546Z,69.30
2023-05-14T13:55:07.872Z,70.09
2023-05-14T13:57:10.997Z,69.78
2023-05-14T13:59:14.088Z,69.54
2023-05-14T14:01:18.563Z,70.03
2023-05-14T14:03:21.841Z,68.98
2023-05-14T14:05:28.409Z,69.93
2023-05-14T14:07:31.628Z,69.56
2023-05-14T14:09:36.818Z,70.74
2023-05-14T14:11:40.121Z,70.52
2023-05-14T14:13:45.110Z,70.35
2023-05-14T14:15:50.048Z,70.14
2023-05-14T14:17:54.818Z,68.14
2023-05-14T14:19:57.949Z,69.30
2023-05-14T14:22:01.077Z,69.58
2023-05-14T14:24:04.342Z,70.14
2023-05-14T14:26:07.623Z,69.85
2023-05-14T14:28:10.774Z,69.75
2023-05-14T14:30:16.552Z,68.65
2023-05-14T14:32:20.233Z,70.31
2023-05-14T14:34:24.844Z,68.85
2023-05-14T14:36:28.926Z,69.49
2023-05-14T14:38:32.011Z,69.71
2023-05-14T14:40:35.342Z,70.03
2023-05-14T14:42:38.810Z,67.32
2023-05-14T14:44:42.299Z,69.85
2023-05-14T14:46:45.381Z,67.61
2023-05-14T14:48:48.433Z,68.40
2023-05-14T14:50:53.219Z,69.69
2023-05-14T14:52:56.228Z,69.08
2023-05-14T14:54:59.299Z,69.12
2023-05-14T14:57:02.320Z,68.31
2023-05-14T14:59:05.468Z,68.06
2023-05-14T15:01:08.667Z,69.13
2023-05-14T15:03:11.998Z,68.01
2023-05-14T15:05:16.533Z,68.29
2023-05-14T15:07:22.148Z,67.45
2023-05-14T15:09:25.191Z,67.70
2023-05-14T15:11:28.884Z,67.97
2023-05-14T15:13:32.055Z,67.74
2023-05-14T15:15:35.522Z,67.54
2023-05-14T15:17:38.669Z,67.18
2023-05-14T15:19:41.773Z,69.33
2023-05-14T15:21:44.939Z,68.70
2023-05-14T15:23:49.420Z,67.50
2023-05-14T15:25:52.584Z,69.44
2023-05-14T15:27:55.950Z,67.25
2023-05-14T15:29:58.965Z,67.34
2023-05-14T15:32:02.114Z,66.13
2023-05-14T15:34:05.327Z,66.71
2023-05-14T15:36:08.803Z,67.40
2023-05-14T15:38:12.057Z,67.19
2023-05-14T15:40:16.531Z,68.09
2023-05-14T15:42:20.799Z,67.54
2023-05-14T15:44:23.942Z,67.77
2023-05-14T15:46:27.319Z,65.98
2023-05-14T15:48:30.571Z,67.15
2023-05-14T15:50:33.724Z,65.99
2023-05-14T15:52:36.977Z,67.63
2023-05-14T15:54:40.057Z,67.49
2023-05-14T15:56:44.483Z,68.33
2023-05-14T15:58:47.612Z,68.17
2023-05-14T16:00:50.658Z,68.58
2023-05-14T16:02:53.764Z,68.65
2023-05-14T16:04:57.065Z,68.54
2023-05-14T16:07:02.974Z,67.30
2023-05-14T16:09:06.119Z,66.01
2023-05-14T16:11:09.353Z,64.85
2023-05-14T16:13:13.771Z,65.85
2023-05-14T16:15:16.995Z,66.54
2023-05-14T16:17:20.076Z,67.37
2023-05-14T16:19:23.151Z,67.92
2023-05-14T16:21:26.390Z,67.73
2023-05-14T16:23:29.606Z,68.60
2023-05-14T16:25:32.734Z,69.62
2023-05-14T16:27:35.900Z,68.03
2023-05-14T16:29:40.431Z,68.94
2023-05-14T16:31:43.553Z,67.60
2023-05-14T16:33:46.855Z,66.17
2023-05-14T16:35:51.124Z,65.64
2023-05-14T16:37:54.398Z,66.00
2023-05-14T16:39:57.560Z,66.93
2023-05-14T16:42:00.649Z,67.45
2023-05-14T16:44:03.717Z,65.89
2023-05-14T16:46:08.429Z,64.53
2023-05-14T16:48:11.702Z,63.21
2023-05-14T16:50:14.787Z,62.66
2023-05-14T16:52:17.812Z,63.55
2023-05-14T16:54:21.060Z,63.57
2023-05-14T16:56:24.119Z,61.39
2023-05-14T16:58:27.217Z,61.84
2023-05-14T17:00:30.707Z,62.91
2023-05-14T17:02:35.158Z,62.60
2023-05-14T17:04:41.921Z,62.38
2023-05-14T17:06:45.193Z,64.00
2023-05-14T17:08:48.240Z,63.38
2023-05-14T17:10:51.716Z,63.72
2023-05-14T17:12:54.810Z,64.05
2023-05-14T17:14:57.904Z,64.80
2023-05-14T17:17:00.978Z,64.67
2023-05-14T17:19:05.757Z,64.51
2023-05-14T17:21:08.932Z,63.65
2023-05-14T17:23:11.990Z,64.51
2023-05-14T17:25:15.066Z,64.25
2023-05-14T17:27:18.146Z,63.86
2023-05-14T17:29:21.195Z,64.82
2023-05-14T17:31:24.332Z,64.33
2023-05-14T17:33:27.411Z,64.48
2023-05-14T17:35:35.806Z,65.42
2023-05-14T17:37:38.884Z,65.20
2023-05-14T17:39:41.923Z,64.34
2023-05-14T17:41:45.260Z,62.75
2023-05-14T17:43:48.222Z,63.11
2023-05-14T17:45:54.379Z,64.20
2023-05-14T17:47:58.026Z,64.19
2023-05-14T17:50:01.299Z,64.20
2023-05-14T17:52:06.259Z,64.13
2023-05-14T17:54:09.416Z,64.76
2023-05-14T17:56:12.550Z,64.82
2023-05-14T17:58:16.287Z,64.88
2023-05-14T18:00:19.870Z,64.31
2023-05-14T18:02:23.066Z,65.67
2023-05-14T18:04:26.468Z,65.40
2023-05-14T18:06:29.847Z,65.64
2023-05-14T18:08:34.370Z,65.93
2023-05-14T18:10:37.573Z,65.90
2023-05-14T18:12:40.834Z,66.50
2023-05-14T18:14:45.579Z,67.29
2023-05-14T18:16:49.009Z,68.88
2023-05-14T18:18:52.203Z,69.78
2023-05-14T18:20:55.231Z,69.42
2023-05-14T18:22:58.304Z,68.88
2023-05-14T18:25:02.833Z,69.30
2023-05-14T18:27:06.254Z,69.92
2023-05-14T18:29:09.424Z,69.59
2023-05-14T18:31:12.640Z,68.77
2023-05-14T18:33:15.891Z,68.85
2023-05-14T18:35:19.115Z,68.94
2023-05-14T18:37:22.250Z,68.54
2023-05-14T18:39:25.635Z,69.29
2023-05-14T18:41:30.203Z,70.24
2023-05-14T18:43:33.375Z,70.15
2023-05-14T18:45:36.540Z,70.88
2023-05-14T18:47:40.447Z,71.62
2023-05-14T18:49:43.593Z,71.26
2023-05-14T18:51:46.807Z,71.85
2023-05-14T18:53:49.892Z,72.26
2023-05-14T18:55:52.965Z,72.47
2023-05-14T18:57:57.935Z,72.94
2023-05-14T19:00:02.085Z,73.83
2023-05-14T19:02:06.171Z,72.78
2023-05-14T19:04:09.535Z,73.05
2023-05-14T19:06:12.888Z,73.59
2023-05-14T19:08:17.311Z,74.51
2023-05-14T19:10:20.522Z,74.49
2023-05-14T19:12:23.939Z,75.04
2023-05-14T19:14:28.415Z,76.16
2023-05-14T19:16:32.630Z,76.41
2023-05-14T19:18:36.082Z,76.35
2023-05-14T19:20:39.278Z,76.62
2023-05-14T19:22:42.404Z,77.60
2023-05-14T19:24:45.546Z,77.76
2023-05-14T19:26:48.891Z,78.63
2023-05-14T19:28:52.734Z,79.01
2023-05-14T19:30:57.366Z,79.89
2023-05-14T19:33:00.779Z,79.58
2023-05-14T19:35:03.944Z,78.96
2023-05-14T19:37:07.285Z,81.37
2023-05-14T19:39:10.978Z,80.42
2023-05-14T19:41:14.067Z,80.45
2023-05-14T19:43:17.154Z,80.20
2023-05-14T19:45:20.227Z,81.83
2023-05-14T19:47:28.538Z,81.39
2023-05-14T19:49:31.734Z,80.26
2023-05-14T19:51:34.937Z,80.03
2023-05-14T19:53:38.061Z,82.13
2023-05-14T19:55:41.723Z,81.96
2023-05-14T19:57:44.900Z,81.20
2023-05-14T19:59:48.027Z,81.55
2023-05-14T20:01:51.196Z,81.26
2023-05-14T20:03:55.862Z,82.32
2023-05-14T20:05:59.066Z,83.11
2023-05-14T20:08:04.004Z,82.21
2023-05-14T20:10:08.156Z,82.82
2023-05-14T20:12:12.921Z,84.12
2023-05-14T20:14:16.277Z,82.79
2023-05-14T20:16:19.604Z,83.00
2023-05-14T20:18:23.188Z,83.51
2023-05-14T20:20:29.663Z,83.55
2023-05-14T20:22:35.584Z,84.31
2023-05-14T20:24:38.748Z,83.54
2023-05-14T20:26:42.194Z,84.26
2023-05-14T20:28:45.713Z,85.27
2023-05-14T20:30:48.998Z,85.34
2023-05-14T20:32:52.556Z,84.18
2023-05-14T20:34:56.009Z,84.23
2023-05-14T20:37:01.403Z,84.50
2023-05-14T20:39:06.163Z,85.22
2023-05-14T20:41:09.428Z,84.51
2023-05-14T20:43:12.726Z,85.11
2023-05-14T20:45:15.837Z,85.70
2023-05-14T20:47:21.401Z,84.58
2023-05-14T20:49:24.501Z,85.83
2023-05-14T20:51:27.579Z,85.72
2023-05-14T20:53:32.091Z,86.36
2023-05-14T20:55:35.386Z,85.64
2023-05-14T20:57:38.415Z,86.04
2023-05-14T20:59:41.596Z,86.48
2023-05-14T21:01:44.676Z,86.54
2023-05-14T21:03:47.988Z,86.81
2023-05-14T21:05:52.635Z,85.85
2023-05-14T21:07:55.817Z,85.67
2023-05-14T21:10:01.895Z,85.66
2023-05-14T21:12:05.741Z,86.44
2023-05-14T21:14:08.857Z,86.24
2023-05-14T21:16:12.789Z,86.85
2023-05-14T21:18:16.033Z,86.73
2023-05-14T21:20:19.330Z,87.44
2023-05-14T21:22:23.457Z,87.70
2023-05-14T21:24:26.547Z,88.21
2023-05-14T21:26:32.617Z,87.67
2023-05-14T21:28:35.685Z,87.14
2023-05-14T21:30:38.795Z,86.90
2023-05-14T21:32:42.000Z,87.57
2023-05-14T21:34:45.144Z,87.94
2023-05-14T21:36:48.568Z,87.71
2023-05-14T21:38:53.562Z,87.87
2023-05-14T21:40:56.681Z,87.96
2023-05-14T21:43:01.519Z,88.51
2023-05-14T21:45:05.102Z,88.20
2023-05-14T21:47:08.567Z,87.71
2023-05-14T21:49:11.732Z,88.65
2023-05-14T21:51:14.922Z,88.59
2023-05-14T21:53:18.046Z,88.90
2023-05-14T21:55:21.510Z,88.65
2023-05-14T21:57:27.377Z,88.46
2023-05-14T21:59:32.718Z,87.86
2023-05-14T22:01:50.631Z,87.95
2023-05-14T22:04:00.320Z,88.23
2023-05-14T22:06:03.655Z,88.63
2023-05-14T22:08:07.278Z,88.97
2023-05-14T22:10:11.439Z,88.75
2023-05-14T22:12:14.547Z,88.82
2023-05-14T22:14:17.632Z,88.97
2023-05-14T22:16:22.857Z,89.32
2023-05-14T22:18:26.150Z,89.38
2023-05-14T22:20:29.236Z,89.77
2023-05-14T22:22:32.362Z,89.58
2023-05-14T22:24:35.524Z,88.45
2023-05-14T22:26:38.689Z,89.56
2023-05-14T22:28:43.538Z,89.14
2023-05-14T22:30:46.556Z,88.99
2023-05-14T22:32:51.081Z,89.12
2023-05-14T22:34:54.183Z,88.74
2023-05-14T22:36:57.257Z,89.35
2023-05-14T22:39:00.351Z,89.10
2023-05-14T22:41:03.389Z,89.09
2023-05-14T22:43:06.447Z,89.21
2023-05-14T22:45:10.565Z,88.89
2023-05-14T22:47:13.622Z,88.91
2023-05-14T22:49:18.133Z,87.74
2023-05-14T22:51:21.155Z,89.05
2023-05-14T22:53:25.271Z,88.10
2023-05-14T22:55:28.628Z,89.39
2023-05-14T22:57:31.762Z,89.11
2023-05-14T22:59:34.855Z,89.30
2023-05-14T23:01:37.975Z,89.50
2023-05-14T23:03:41.042Z,88.74
2023-05-14T23:05:45.457Z,88.86
2023-05-14T23:07:48.515Z,90.16
2023-05-14T23:09:51.573Z,90.22
2023-05-14T23:11:55.015Z,89.80
2023-05-14T23:13:58.035Z,89.75
2023-05-14T23:16:01.171Z,89.89
2023-05-14T23:18:04.348Z,90.36
2023-05-14T23:20:10.548Z,90.48
2023-05-14T23:22:14.975Z,90.21
2023-05-14T23:24:18.065Z,90.72
2023-05-14T23:26:21.608Z,90.24
2023-05-14T23:28:24.816Z,90.33
2023-05-14T23:30:27.836Z,90.47
2023-05-14T23:32:30.943Z,90.41
2023-05-14T23:34:34.631Z,90.79
2023-05-14T23:36:37.747Z,91.19
2023-05-14T23:38:42.291Z,90.03
2023-05-14T23:40:45.423Z,90.65
2023-05-14T23:42:48.461Z,90.50
2023-05-14T23:44:51.632Z,90.24
2023-05-14T23:46:54.917Z,90.25
2023-05-14T23:48:58.232Z,90.43
2023-05-14T23:51:01.330Z,90.92
2023-05-14T23:53:04.451Z,90.38
2023-05-14T23:55:09.780Z,90.44
2023-05-14T23:57:14.509Z,91.14
2023-05-14T23:59:17.687Z,91.72
